Time;durP1;ratioP1;P1;durP2;ratioP2;P2;SDS_P1;SDS_P2;PMS_P1;PMS_P2;Temp;Humidity;BMP_temperature;BMP_pressure;BME280_temperature;BME280_humidity;BME280_pressure;Samples;Min_cycle;Max_cycle;Signal;HPM_P1;HPM_P2
2022/05/31 00:00:08;;;;;;;11.00;5.30;;;;;;;15.18;100.00;100657.59;1735990;82;20914;-46
2022/05/31 00:12:09;;;;;;;8.20;4.40;;;;;;;15.05;100.00;100658.94;1767436;79;20952;-45
2022/05/31 00:14:38;;;;;;;7.45;4.28;;;;;;;15.01;100.00;100667.73;1757912;81;20961;-46
2022/05/31 00:17:06;;;;;;;9.25;4.03;;;;;;;14.95;100.00;100675.33;1757988;81;20996;-46
2022/05/31 00:19:33;;;;;;;12.50;4.35;;;;;;;14.89;100.00;100665.08;1757934;81;22141;-46
2022/05/31 00:22:20;;;;;;;5.17;3.83;;;;;;;14.84;100.00;100667.00;1757955;81;20878;-45
2022/05/31 00:24:46;;;;;;;4.47;3.05;;;;;;;14.83;100.00;100666.59;1758063;81;20971;-45
2022/05/31 00:27:18;;;;;;;6.30;3.30;;;;;;;14.81;100.00;100661.45;1757962;81;20941;-46
2022/05/31 00:29:47;;;;;;;10.98;3.80;;;;;;;14.78;100.00;100653.27;1757794;81;20846;-46
2022/05/31 00:32:18;;;;;;;16.97;3.58;;;;;;;14.76;100.00;100661.59;1757995;81;20973;-46
2022/05/31 00:34:47;;;;;;;10.32;3.15;;;;;;;14.76;100.00;100665.94;1763878;81;20953;-46
2022/05/31 00:37:14;;;;;;;9.65;3.87;;;;;;;14.75;100.00;100670.75;1757940;81;20858;-46
2022/05/31 00:39:42;;;;;;;3.98;2.85;;;;;;;14.75;100.00;100670.75;1757944;81;20858;-46
2022/05/31 00:42:14;;;;;;;5.30;3.35;;;;;;;14.74;100.00;100670.35;1757993;81;21586;-46
2022/05/31 00:44:42;;;;;;;8.03;3.47;;;;;;;14.74;100.00;100671.66;1757810;81;21091;-47
2022/05/31 00:47:24;;;;;;;5.05;3.35;;;;;;;14.74;100.00;100676.42;1757857;81;20890;-46
2022/05/31 00:50:21;;;;;;;12.60;3.52;;;;;;;14.75;100.00;100682.48;1757965;81;21559;-46
2022/05/31 00:52:51;;;;;;;9.88;3.72;;;;;;;14.77;100.00;100684.58;1758007;81;20998;-45
2022/05/31 00:55:29;;;;;;;7.60;3.10;;;;;;;14.76;100.00;100681.57;1763439;81;21487;-46
2022/05/31 00:58:07;;;;;;;6.92;3.42;;;;;;;14.77;100.00;100687.19;1758072;81;21299;-46
2022/05/31 01:00:36;;;;;;;6.42;3.10;;;;;;;14.78;100.00;100685.02;1757835;81;20960;-46
2022/05/31 01:03:04;;;;;;;11.43;3.62;;;;;;;14.78;100.00;100687.15;1729006;82;20913;-45
2022/05/31 01:05:31;;;;;;;8.38;3.52;;;;;;;14.80;100.00;100696.23;1750622;82;20853;-46
2022/05/31 01:07:58;;;;;;;8.63;3.35;;;;;;;14.80;100.00;100700.98;1750593;82;20944;-46
2022/05/31 01:10:27;;;;;;;10.05;3.47;;;;;;;14.80;100.00;100700.14;1720919;82;21251;-46
2022/05/31 01:12:59;;;;;;;10.05;3.60;;;;;;;14.80;100.00;100702.75;1745488;81;20992;-46
2022/05/31 01:15:46;;;;;;;8.90;3.27;;;;;;;14.82;100.00;100698.34;1748246;82;20940;-45
2022/05/31 01:18:32;;;;;;;6.65;3.80;;;;;;;14.84;100.00;100706.95;1748112;82;20992;-45
2022/05/31 01:21:16;;;;;;;8.63;3.62;;;;;;;14.87;100.00;100710.77;1743070;82;21058;-46
2022/05/31 01:24:08;;;;;;;11.45;3.83;;;;;;;14.92;100.00;100710.62;1745022;82;20989;-45
2022/05/31 01:27:07;;;;;;;5.55;3.33;;;;;;;14.94;100.00;100716.62;1747474;82;21035;-45
2022/05/31 01:29:37;;;;;;;6.85;3.70;;;;;;;14.99;100.00;100720.37;1748381;82;20993;-46
2022/05/31 01:32:08;;;;;;;22.40;4.67;;;;;;;15.03;100.00;100724.58;1748139;82;20985;-46
2022/05/31 01:34:57;;;;;;;11.80;4.47;;;;;;;15.05;100.00;100726.24;1747745;82;20932;-46
2022/05/31 01:37:47;;;;;;;13.90;3.70;;;;;;;15.08;100.00;100725.30;1702868;83;21267;-45
2022/05/31 01:40:19;;;;;;;6.42;4.00;;;;;;;15.07;100.00;100724.44;1703107;84;21374;-45
2022/05/31 01:42:47;;;;;;;8.15;3.90;;;;;;;15.05;100.00;100728.84;1702955;84;20946;-46
2022/05/31 01:45:26;;;;;;;8.28;4.83;;;;;;;15.05;100.00;100728.84;1702979;84;20893;-46
2022/05/31 01:47:59;;;;;;;8.43;3.92;;;;;;;15.06;100.00;100727.11;1703061;84;20970;-46
2022/05/31 01:50:26;;;;;;;7.85;3.70;;;;;;;15.06;100.00;100732.32;1684906;84;22146;-46
2022/05/31 01:52:53;;;;;;;9.00;3.60;;;;;;;15.05;100.00;100730.62;1702895;84;20986;-46
2022/05/31 01:55:21;;;;;;;9.33;4.25;;;;;;;15.03;100.00;100726.75;1702832;84;20867;-45
2022/05/31 01:57:53;;;;;;;16.25;3.62;;;;;;;15.02;100.00;100728.08;1748386;82;20984;-46
2022/05/31 02:00:21;;;;;;;7.15;3.87;;;;;;;15.01;100.00;100730.30;1703152;84;21031;-46
2022/05/31 02:02:51;;;;;;;7.90;4.22;;;;;;;15.00;100.00;100727.28;1702770;84;21108;-46
2022/05/31 02:05:18;;;;;;;6.22;3.58;;;;;;;15.00;100.00;100729.89;1702991;84;20931;-46
2022/05/31 02:07:59;;;;;;;7.78;4.55;;;;;;;15.00;100.00;100732.50;1702834;84;20912;-46
2022/05/31 02:10:26;;;;;;;8.00;4.35;;;;;;;14.98;100.00;100736.91;1703035;83;20951;-45
2022/05/31 02:12:53;;;;;;;6.53;4.58;;;;;;;14.98;100.00;100739.08;1703406;83;20863;-46
2022/05/31 02:15:39;;;;;;;8.75;4.45;;;;;;;14.99;100.00;100736.01;1714861;83;22183;-46
2022/05/31 02:19:15;;;;;;;7.70;4.80;;;;;;;15.00;100.00;100735.97;1715029;83;20927;-45
2022/05/31 02:21:01;;;;;;;10.35;5.15;;;;;;;15.01;100.00;100737.67;1690247;83;20903;-46
2022/05/31 02:23:28;;;;;;;11.50;4.03;;;;;;;14.98;100.00;100742.13;1714912;83;21506;-46
2022/05/31 02:25:55;;;;;;;6.55;4.05;;;;;;;14.98;100.00;100738.22;1714810;83;20972;-46
2022/05/31 02:28:23;;;;;;;17.95;4.33;;;;;;;14.97;100.00;100736.52;1714887;83;21424;-45
2022/05/31 02:30:50;;;;;;;8.25;4.30;;;;;;;14.97;100.00;100739.12;1714822;83;20998;-46
2022/05/31 02:33:17;;;;;;;18.82;3.92;;;;;;;14.98;100.00;100742.13;1685223;83;20995;-46
2022/05/31 02:35:45;;;;;;;7.58;3.90;;;;;;;14.97;100.00;100744.33;1714817;83;20904;-46
2022/05/31 02:38:12;;;;;;;5.78;4.42;;;;;;;14.99;100.00;100741.22;1714779;83;21003;-46
2022/05/31 02:40:39;;;;;;;9.03;3.98;;;;;;;15.00;100.00;100752.05;1714744;83;21227;-46
2022/05/31 02:43:07;;;;;;;14.15;4.20;;;;;;;14.99;100.00;100750.34;1714615;83;21573;-46
2022/05/31 02:45:34;;;;;;;10.93;5.33;;;;;;;14.96;100.00;100751.31;1714601;83;21034;-46
2022/05/31 02:48:03;;;;;;;19.37;4.80;;;;;;;14.97;100.00;100746.50;1714697;83;20952;-46
2022/05/31 02:50:30;;;;;;;11.05;3.95;;;;;;;14.99;100.00;100749.04;1714815;83;20948;-46
2022/05/31 02:52:58;;;;;;;7.65;3.75;;;;;;;14.97;100.00;100743.03;1714764;83;21206;-46
2022/05/31 02:55:25;;;;;;;7.25;3.87;;;;;;;14.96;100.00;100749.14;1714805;83;20943;-46
2022/05/31 02:58:09;;;;;;;5.55;3.52;;;;;;;14.93;100.00;100747.51;1669099;84;21000;-45
2022/05/31 03:00:55;;;;;;;7.78;3.72;;;;;;;14.93;100.00;100754.02;1743097;81;21038;-46
2022/05/31 03:03:41;;;;;;;10.35;3.42;;;;;;;14.92;100.00;100751.85;1750546;81;21020;-45
2022/05/31 03:06:21;;;;;;;6.17;3.80;;;;;;;14.93;100.00;100750.11;1662544;86;21969;-45
2022/05/31 03:08:50;;;;;;;4.80;3.60;;;;;;;14.95;100.00;100756.13;1748782;82;20980;-45
2022/05/31 03:11:35;;;;;;;10.38;3.87;;;;;;;14.93;100.00;100755.33;1748372;82;20905;-46
2022/05/31 03:14:15;;;;;;;7.33;3.70;;;;;;;14.94;100.00;100752.66;1750551;81;20968;-46
2022/05/31 03:16:43;;;;;;;15.53;3.85;;;;;;;14.99;100.00;100760.77;1750552;81;20833;-46
2022/05/31 03:19:15;;;;;;;6.33;3.58;;;;;;;15.03;100.00;100759.77;1750372;81;21189;-46
2022/05/31 03:21:48;;;;;;;6.00;3.60;;;;;;;15.09;100.00;100759.13;1750604;81;20932;-47
2022/05/31 03:24:19;;;;;;;5.17;3.80;;;;;;;15.17;100.00;100760.19;1750454;82;20995;-46
2022/05/31 03:26:46;;;;;;;9.43;4.10;;;;;;;15.26;100.00;100763.38;1750433;82;20952;-46
2022/05/31 03:29:14;;;;;;;7.70;3.52;;;;;;;15.33;100.00;100763.13;1750709;82;20901;-46
2022/05/31 03:31:41;;;;;;;6.87;3.72;;;;;;;15.44;100.00;100763.23;1750589;82;21274;-46
2022/05/31 03:34:09;;;;;;;8.00;3.05;;;;;;;15.56;100.00;100755.45;1750356;81;20976;-46
2022/05/31 03:36:36;;;;;;;9.23;4.03;;;;;;;15.66;100.00;100759.43;1750476;81;20996;-46
2022/05/31 03:39:06;;;;;;;8.08;3.37;;;;;;;15.72;100.00;100758.37;1750061;81;20983;-47
2022/05/31 03:41:34;;;;;;;13.28;3.85;;;;;;;15.82;100.00;100757.59;1750491;81;20885;-47
2022/05/31 03:44:03;;;;;;;9.68;3.52;;;;;;;15.87;100.00;100757.80;1750393;80;22047;-46
2022/05/31 03:46:42;;;;;;;5.20;3.75;;;;;;;15.90;100.00;100764.25;1632295;82;21510;-47
2022/05/31 03:49:18;;;;;;;9.20;3.98;;;;;;;15.92;100.00;100760.30;1748691;82;21522;-46
2022/05/31 03:51:59;;;;;;;12.28;3.40;;;;;;;15.96;100.00;100763.19;1749857;82;20983;-46
2022/05/31 03:54:28;;;;;;;7.53;3.35;;;;;;;15.93;100.00;100764.16;1750312;82;20951;-46
2022/05/31 03:57:06;;;;;;;10.43;2.80;;;;;;;15.89;100.00;100757.80;1750468;82;21241;-46
2022/05/31 03:59:37;;;;;;;8.95;3.08;;;;;;;15.89;100.00;100759.10;1750475;82;21486;-46
2022/05/31 04:02:05;;;;;;;3.70;3.00;;;;;;;15.91;100.00;100761.20;1750568;82;21043;-46
2022/05/31 04:04:32;;;;;;;10.55;2.95;;;;;;;15.94;100.00;100753.26;1750467;82;20846;-46
2022/05/31 04:07:00;;;;;;;8.23;2.72;;;;;;;15.99;100.00;100759.63;1720988;82;20917;-46
2022/05/31 04:09:28;;;;;;;3.37;2.50;;;;;;;16.06;100.00;100768.93;1750416;80;21153;-46
2022/05/31 04:11:57;;;;;;;11.12;2.87;;;;;;;16.14;100.00;100764.73;1750513;81;21220;-46
2022/05/31 04:14:42;;;;;;;6.22;2.92;;;;;;;16.23;100.00;100763.95;1749081;80;20933;-46
2022/05/31 04:17:10;;;;;;;5.95;2.30;;;;;;;16.32;100.00;100759.27;1748029;82;20968;-46
2022/05/31 04:19:37;;;;;;;10.68;2.60;;;;;;;16.38;100.00;100761.21;1748244;82;21481;-46
2022/05/31 04:22:04;;;;;;;5.05;2.67;;;;;;;16.41;100.00;100752.39;1747933;82;21214;-46
2022/05/31 04:24:33;;;;;;;9.38;2.90;;;;;;;16.52;100.00;100756.76;1748009;82;20905;-46
2022/05/31 04:27:18;;;;;;;5.10;2.90;;;;;;;16.63;100.00;100761.58;1734153;82;21498;-46
2022/05/31 04:30:04;;;;;;;7.67;2.90;;;;;;;16.74;100.00;100756.36;1748385;82;20897;-46
2022/05/31 04:32:53;;;;;;;10.93;2.40;;;;;;;16.80;100.00;100757.45;1748016;82;20920;-46
2022/05/31 04:35:22;;;;;;;4.70;2.20;;;;;;;16.85;100.00;100754.20;1746985;82;21142;-45
2022/05/31 04:37:50;;;;;;;12.45;2.62;;;;;;;16.95;100.00;100750.28;1748020;82;21023;-45
2022/05/31 04:40:24;;;;;;;7.08;2.70;;;;;;;17.09;100.00;100753.67;1746911;82;21392;-45
2022/05/31 04:43:10;;;;;;;6.15;2.35;;;;;;;17.31;100.00;100749.34;1748427;82;20905;-44
2022/05/31 04:45:56;;;;;;;10.98;2.52;;;;;;;17.53;100.00;100755.80;1745485;82;21078;-45
2022/05/31 04:48:25;;;;;;;5.35;2.10;;;;;;;17.76;100.00;100743.02;1747824;82;21160;-45
2022/05/31 04:50:53;;;;;;;6.90;2.42;;;;;;;18.07;100.00;100748.69;1747881;82;20937;-45
2022/05/31 04:53:21;;;;;;;10.30;2.62;;;;;;;18.36;100.00;100746.05;1747966;82;20941;-45
2022/05/31 04:55:50;;;;;;;6.78;2.80;;;;;;;18.62;100.00;100749.21;1743604;82;20965;-45
2022/05/31 04:58:17;;;;;;;8.13;2.70;;;;;;;18.91;100.00;100751.33;1748062;82;21019;-45
2022/05/31 05:00:44;;;;;;;9.75;2.85;;;;;;;19.13;100.00;100752.48;1748155;82;21234;-45
2022/05/31 05:03:11;;;;;;;4.08;2.87;;;;;;;19.35;100.00;100748.79;1720390;82;20936;-45
2022/05/31 05:05:38;;;;;;;8.40;3.25;;;;;;;19.49;100.00;100752.02;1748103;82;20996;-45
2022/05/31 05:08:09;;;;;;;8.35;2.90;;;;;;;19.54;100.00;100746.06;1747712;82;20975;-44
2022/05/31 05:10:37;;;;;;;8.10;2.80;;;;;;;19.56;100.00;100744.20;1747913;82;21003;-45
2022/05/31 05:13:08;;;;;;;8.45;3.10;;;;;;;19.60;100.00;100747.53;1746117;82;20885;-45
2022/05/31 05:15:53;;;;;;;7.75;3.83;;;;;;;19.66;99.96;100751.14;1747573;81;20984;-45
2022/05/31 05:18:20;;;;;;;7.87;3.77;;;;;;;19.79;99.51;100753.98;1720780;82;20912;-45
2022/05/31 05:20:48;;;;;;;9.93;3.67;;;;;;;19.91;97.52;100744.63;1750413;81;20936;-45
2022/05/31 05:23:15;;;;;;;11.95;4.00;;;;;;;20.01;96.42;100748.45;1750694;82;21047;-45
2022/05/31 05:25:51;;;;;;;8.33;4.12;;;;;;;20.07;96.25;100742.86;1750497;82;21229;-45
2022/05/31 05:33:35;;;;;;;10.85;4.17;;;;;;;20.24;94.99;100738.03;1835821;77;22783;-44
2022/05/31 05:36:04;;;;;;;11.25;4.72;;;;;;;20.22;94.04;100740.34;1812709;77;20868;-45
2022/05/31 05:38:32;;;;;;;11.00;4.35;;;;;;;20.18;94.37;100740.97;1842286;77;21325;-45
2022/05/31 05:41:01;;;;;;;15.25;5.65;;;;;;;20.23;94.72;100738.09;1815215;77;20998;-45
2022/05/31 05:43:32;;;;;;;11.28;5.47;;;;;;;20.34;95.25;100737.06;1822444;78;20875;-46
2022/05/31 05:46:00;;;;;;;9.10;5.67;;;;;;;20.53;94.88;100732.93;1830231;78;20923;-45
2022/05/31 05:48:28;;;;;;;16.87;5.65;;;;;;;20.79;94.17;100725.80;1829630;78;20865;-46
2022/05/31 05:50:55;;;;;;;13.30;5.45;;;;;;;21.06;92.18;100731.74;1815198;77;21010;-46
2022/05/31 05:53:34;;;;;;;9.13;5.58;;;;;;;21.33;90.79;100733.69;1751310;80;20936;-46
2022/05/31 05:56:20;;;;;;;9.98;5.33;;;;;;;21.58;87.28;100739.66;1781122;80;21026;-46
2022/05/31 05:59:06;;;;;;;12.93;5.90;;;;;;;21.84;86.67;100737.25;1784187;78;21026;-45
2022/05/31 06:05:09;;;;;;;16.50;6.15;;;;;;;22.19;83.95;100728.92;1719703;77;21001;-46
2022/05/31 06:07:47;;;;;;;9.85;5.97;;;;;;;22.46;83.81;100725.95;1710908;83;28196;-46
2022/05/31 06:10:21;;;;;;;14.50;6.35;;;;;;;22.60;80.49;100732.52;1711432;83;21471;-46
2022/05/31 06:12:53;;;;;;;12.33;6.65;;;;;;;22.73;81.76;100729.09;1712888;83;20922;-46
2022/05/31 06:15:23;;;;;;;14.63;6.22;;;;;;;22.92;81.55;100736.17;1710229;82;20913;-46
2022/05/31 06:17:52;;;;;;;14.38;7.33;;;;;;;23.09;80.85;100725.80;1710311;83;21203;-46
2022/05/31 06:20:19;;;;;;;17.07;6.75;;;;;;;23.20;76.58;100726.86;1711526;83;20949;-46
2022/05/31 06:22:46;;;;;;;17.05;7.00;;;;;;;23.15;75.17;100732.47;1712816;83;20949;-46
2022/05/31 06:25:17;;;;;;;17.23;6.95;;;;;;;23.12;75.90;100731.36;1714803;83;21515;-46
2022/05/31 06:28:01;;;;;;;10.68;7.03;;;;;;;23.21;76.70;100729.87;1709836;83;20957;-44
2022/05/31 06:30:29;;;;;;;16.00;7.33;;;;;;;23.31;74.40;100729.66;1712720;83;21215;-44
2022/05/31 06:32:56;;;;;;;18.15;8.00;;;;;;;23.27;74.13;100721.59;1712608;82;21033;-44
2022/05/31 06:35:24;;;;;;;15.55;8.23;;;;;;;23.22;72.92;100730.23;1714170;83;21582;-44
2022/05/31 06:38:02;;;;;;;7.70;6.80;;;;;;;23.17;72.80;100733.20;1710806;83;21029;-45
2022/05/31 06:40:30;;;;;;;15.78;7.47;;;;;;;23.19;75.14;100736.59;1713857;83;21048;-46
2022/05/31 06:43:06;;;;;;;11.85;7.90;;;;;;;23.35;74.55;100735.56;1711469;83;21104;-45
2022/05/31 06:45:52;;;;;;;17.23;7.35;;;;;;;23.44;73.17;100732.31;1710575;82;21056;-46
2022/05/31 06:48:37;;;;;;;12.40;7.05;;;;;;;23.48;74.11;100729.83;1711690;83;21037;-44
2022/05/31 06:57:14;;;;;;;13.40;7.65;;;;;;;23.64;73.95;100715.08;1708780;83;21282;-46
2022/05/31 06:59:49;;;;;;;12.98;6.85;;;;;;;23.76;74.33;100716.02;1708210;83;21009;-46
2022/05/31 07:02:18;;;;;;;10.18;7.72;;;;;;;23.74;72.52;100704.70;1711164;82;20944;-46
2022/05/31 07:04:45;;;;;;;16.57;7.65;;;;;;;23.69;73.85;100714.77;1716667;83;21012;-46
2022/05/31 07:07:12;;;;;;;15.93;7.50;;;;;;;23.83;74.13;100714.62;1714118;83;20944;-46
2022/05/31 07:09:51;;;;;;;16.85;7.35;;;;;;;24.01;72.70;100722.23;1714960;82;21264;-46
2022/05/31 07:12:27;;;;;;;16.07;7.95;;;;;;;24.10;73.90;100717.60;1694195;83;20983;-46
2022/05/31 07:15:14;;;;;;;13.83;7.92;;;;;;;24.30;72.33;100725.91;1711367;83;20944;-47
2022/05/31 07:17:52;;;;;;;13.38;8.43;;;;;;;24.50;72.41;100727.58;1692855;83;21524;-44
2022/05/31 07:20:19;;;;;;;18.27;7.90;;;;;;;24.70;70.94;100735.86;1693133;83;20987;-44
2022/05/31 07:22:46;;;;;;;21.70;8.08;;;;;;;24.80;70.38;100727.16;1721246;83;21142;-45
2022/05/31 07:25:24;;;;;;;12.93;7.42;;;;;;;24.94;68.03;100726.13;1721969;83;21079;-47
2022/05/31 07:27:55;;;;;;;16.05;7.78;;;;;;;24.98;68.21;100727.20;1721268;83;20920;-46
2022/05/31 07:30:22;;;;;;;21.57;8.30;;;;;;;25.08;67.35;100725.54;1720977;83;20964;-46
2022/05/31 07:32:50;;;;;;;15.00;7.25;;;;;;;25.16;65.56;100729.80;1724336;83;21497;-46
2022/05/31 07:35:18;;;;;;;13.58;7.58;;;;;;;25.27;66.11;100724.14;1724091;82;21052;-46
2022/05/31 07:37:45;;;;;;;15.48;7.53;;;;;;;25.38;63.87;100725.01;1723780;83;20940;-46
2022/05/31 07:40:13;;;;;;;17.45;7.75;;;;;;;25.47;66.09;100726.61;1721367;83;21126;-46
2022/05/31 07:42:41;;;;;;;12.05;7.65;;;;;;;25.57;63.91;100729.39;1686506;83;21020;-46
2022/05/31 07:45:11;;;;;;;11.80;7.70;;;;;;;25.62;65.79;100726.75;1709838;83;20936;-46
2022/05/31 07:47:38;;;;;;;13.45;7.75;;;;;;;25.77;64.29;100719.89;1715452;83;21012;-46
2022/05/31 07:50:08;;;;;;;14.00;7.17;;;;;;;25.88;65.19;100719.88;1710921;83;20917;-46
2022/05/31 07:52:37;;;;;;;17.12;8.15;;;;;;;25.96;62.77;100732.53;1695846;83;20929;-46
2022/05/31 07:55:22;;;;;;;11.88;8.03;;;;;;;25.97;62.35;100732.39;1712213;83;21050;-46
2022/05/31 08:00:47;;;;;;;12.85;7.62;;;;;;;26.22;62.25;100737.58;1710753;83;21117;-45
2022/05/31 08:03:15;;;;;;;13.85;8.03;;;;;;;26.38;62.28;100736.68;1741554;79;20988;-45
2022/05/31 08:05:42;;;;;;;12.53;7.80;;;;;;;26.62;61.72;100738.30;1807739;78;20946;-45
2022/05/31 08:08:09;;;;;;;14.33;7.70;;;;;;;26.70;60.70;100735.52;1806826;77;20958;-45
2022/05/31 08:10:36;;;;;;;10.25;6.65;;;;;;;26.83;59.39;100740.14;1774067;78;21045;-45
2022/05/31 08:13:04;;;;;;;26.70;8.23;;;;;;;26.79;60.24;100744.03;1800114;78;21979;-45
2022/05/31 08:15:31;;;;;;;13.88;7.53;;;;;;;26.81;60.00;100739.44;1789406;78;21549;-45
2022/05/31 08:18:00;;;;;;;12.68;8.18;;;;;;;26.92;60.00;100736.77;1780116;78;20903;-46
2022/05/31 08:20:27;;;;;;;14.85;7.92;;;;;;;26.98;59.55;100734.06;1801459;79;20892;-45
2022/05/31 08:22:54;;;;;;;16.80;7.72;;;;;;;27.07;59.47;100729.80;1795835;78;20876;-46
2022/05/31 08:25:21;;;;;;;12.55;7.45;;;;;;;27.19;60.16;100731.91;1781868;77;21739;-46
2022/05/31 08:27:48;;;;;;;14.63;8.10;;;;;;;27.41;60.24;100729.60;1785369;78;20821;-46
2022/05/31 08:30:15;;;;;;;18.42;8.33;;;;;;;27.62;60.29;100723.41;1795615;78;21049;-46
2022/05/31 08:32:41;;;;;;;13.88;8.20;;;;;;;27.89;59.24;100723.30;1771806;78;20891;-45
2022/05/31 08:35:09;;;;;;;13.50;8.00;;;;;;;28.07;57.84;100720.34;1783969;78;20874;-46
2022/05/31 08:37:36;;;;;;;12.65;7.70;;;;;;;28.19;58.67;100722.94;1783986;78;22114;-46
2022/05/31 08:40:05;;;;;;;15.95;7.08;;;;;;;28.22;56.68;100718.16;1783402;78;21049;-46
2022/05/31 08:42:57;;;;;;;12.75;6.85;;;;;;;28.24;57.41;100720.20;1755006;80;20924;-46
2022/05/31 08:45:45;;;;;;;16.48;7.22;;;;;;;28.32;57.54;100720.02;1790326;78;20947;-46
2022/05/31 08:48:33;;;;;;;14.03;7.03;;;;;;;28.43;56.19;100717.72;1785351;78;20923;-46
2022/05/31 08:56:57;;;;;;;13.83;7.25;;;;;;;28.47;54.66;100715.13;1800980;78;21560;-45
2022/05/31 08:59:55;;;;;;;12.30;6.75;;;;;;;28.64;55.54;100712.25;1754885;80;21485;-46
2022/05/31 09:02:33;;;;;;;11.48;6.55;;;;;;;28.80;54.96;100710.38;1799583;77;21015;-46
2022/05/31 09:05:10;;;;;;;10.10;6.25;;;;;;;28.82;52.78;100708.41;1766202;80;21263;-46
2022/05/31 09:07:43;;;;;;;16.85;6.78;;;;;;;28.84;53.12;100712.28;1729344;82;20929;-44
2022/05/31 09:10:26;;;;;;;15.13;6.65;;;;;;;28.87;52.20;100714.14;1804367;78;21463;-45
2022/05/31 09:13:32;;;;;;;9.98;6.53;;;;;;;28.96;53.82;100704.46;1801231;78;21467;-46
2022/05/31 09:16:18;;;;;;;15.43;6.87;;;;;;;29.12;52.06;100709.19;1822177;78;22313;-45
2022/05/31 09:18:51;;;;;;;13.30;6.35;;;;;;;29.05;52.45;100704.10;1812104;78;21474;-45
2022/05/31 09:21:41;;;;;;;9.08;6.12;;;;;;;29.13;53.64;100705.55;1812805;78;20893;-45
2022/05/31 09:24:18;;;;;;;14.50;7.10;;;;;;;29.23;51.58;100710.38;1817202;78;20886;-45
2022/05/31 09:27:14;;;;;;;14.05;6.92;;;;;;;29.10;51.74;100713.83;1819085;78;20933;-45
2022/05/31 09:29:58;;;;;;;8.40;6.20;;;;;;;28.98;53.06;100704.33;1807997;78;21426;-45
2022/05/31 09:32:48;;;;;;;12.58;7.15;;;;;;;28.92;52.66;100701.23;1819290;78;21388;-45
2022/05/31 09:35:40;;;;;;;13.28;6.83;;;;;;;28.80;52.52;100709.05;1813966;78;20921;-45
2022/05/31 09:38:40;;;;;;;14.50;5.85;;;;;;;28.87;53.83;100704.00;1817976;78;20955;-46
2022/05/31 09:41:22;;;;;;;12.60;6.08;;;;;;;29.29;53.17;100697.45;1809339;78;20862;-44
2022/05/31 09:44:04;;;;;;;10.63;5.95;;;;;;;29.39;51.32;100703.09;1826390;78;20996;-45
2022/05/31 09:46:42;;;;;;;11.80;6.47;;;;;;;29.15;52.04;100706.75;1810732;78;21106;-44
2022/05/31 09:49:26;;;;;;;15.43;6.87;;;;;;;29.09;52.11;100706.34;1814444;78;20964;-45
2022/05/31 09:51:53;;;;;;;11.43;6.53;;;;;;;29.31;52.16;100706.14;1816316;78;21008;-45
2022/05/31 09:57:27;;;;;;;12.28;6.22;;;;;;;29.81;50.92;100704.99;1814349;78;21455;-46
2022/05/31 10:00:13;;;;;;;8.15;5.83;;;;;;;29.84;49.81;100699.36;1811360;78;21244;-45
2022/05/31 10:03:11;;;;;;;10.80;5.80;;;;;;;29.95;51.27;100693.80;1814546;78;21410;-45
2022/05/31 10:05:43;;;;;;;12.75;5.95;;;;;;;30.10;48.49;100700.00;1813472;78;20892;-45
2022/05/31 10:08:19;;;;;;;11.43;5.70;;;;;;;30.07;49.83;100698.46;1805074;78;20965;-46
2022/05/31 10:10:51;;;;;;;12.40;6.10;;;;;;;30.14;49.60;100700.52;1815694;79;20872;-46
2022/05/31 10:13:38;;;;;;;14.58;6.33;;;;;;;30.34;50.05;100700.73;1808338;78;21078;-46
2022/05/31 10:16:19;;;;;;;12.85;6.22;;;;;;;30.56;48.85;100701.73;1810820;78;20931;-45
2022/05/31 10:18:50;;;;;;;9.10;5.78;;;;;;;30.67;49.43;100699.70;1816188;78;20884;-46
2022/05/31 10:21:35;;;;;;;10.50;5.60;;;;;;;30.57;47.51;100698.92;1816514;78;20880;-46
2022/05/31 10:24:08;;;;;;;10.40;5.33;;;;;;;30.30;47.77;100702.03;1805443;78;20994;-45
2022/05/31 10:26:41;;;;;;;11.05;5.55;;;;;;;30.38;48.78;100698.09;1787764;78;21106;-44
2022/05/31 10:29:29;;;;;;;9.25;5.33;;;;;;;30.35;49.35;100698.40;1787833;78;20959;-46
2022/05/31 10:31:58;;;;;;;12.58;5.60;;;;;;;30.52;48.22;100697.22;1818168;78;21521;-46
2022/05/31 10:34:44;;;;;;;12.25;5.47;;;;;;;30.66;48.04;100700.69;1813391;78;20986;-45
2022/05/31 10:37:27;;;;;;;10.48;5.40;;;;;;;30.75;46.95;100699.45;1817578;79;20958;-46
2022/05/31 10:40:03;;;;;;;8.50;5.10;;;;;;;30.72;47.98;100702.43;1817944;78;21211;-46
2022/05/31 10:42:30;;;;;;;9.58;5.47;;;;;;;30.84;46.97;100699.02;1809757;78;20966;-46
2022/05/31 10:45:02;;;;;;;9.35;5.12;;;;;;;30.86;46.43;100695.17;1807725;78;20970;-44
2022/05/31 10:47:26;;;;;;;4.60;4.20;;;;;;;30.88;45.30;100698.52;1813460;78;20889;-45
2022/05/31 10:49:54;;;;;;;13.60;4.45;;;;;;;30.99;45.43;100693.42;1820237;78;20963;-45
2022/05/31 10:52:52;;;;;;;8.08;4.55;;;;;;;31.07;47.08;100688.16;1764926;78;21135;-45
2022/05/31 10:55:34;;;;;;;9.15;4.95;;;;;;;31.09;45.21;100685.30;1796558;78;20841;-45
2022/05/31 10:58:46;;;;;;;11.30;4.97;;;;;;;31.06;47.11;100686.96;1812766;78;20879;-45
2022/05/31 11:01:35;;;;;;;8.73;4.95;;;;;;;31.32;45.21;100687.47;1810809;78;20871;-44
2022/05/31 11:04:41;;;;;;;8.95;4.60;;;;;;;31.54;46.09;100688.25;1818106;77;20912;-46
2022/05/31 11:14:07;;;;;;;12.13;4.35;;;;;;;31.66;43.72;100690.62;1667394;85;20950;-45
2022/05/31 11:17:04;;;;;;;8.88;4.70;;;;;;;31.57;43.32;100691.59;1768237;80;20952;-45
2022/05/31 11:19:54;;;;;;;13.38;5.40;;;;;;;31.34;44.86;100693.02;1805244;78;20944;-45
2022/05/31 11:22:49;;;;;;;10.28;4.60;;;;;;;31.31;44.71;100690.63;1809401;78;21247;-46
2022/05/31 11:25:37;;;;;;;13.83;4.85;;;;;;;31.24;44.93;100685.59;1812077;78;21485;-45
2022/05/31 11:28:12;;;;;;;9.30;4.72;;;;;;;31.35;43.35;100681.31;1813365;78;20993;-45
2022/05/31 11:31:02;;;;;;;8.55;4.67;;;;;;;31.36;43.76;100678.13;1797256;78;20879;-45
2022/05/31 11:33:53;;;;;;;7.42;4.58;;;;;;;31.43;43.45;100674.33;1817569;79;20983;-45
2022/05/31 11:37:02;;;;;;;10.95;4.72;;;;;;;31.46;43.13;100670.84;1816020;78;21425;-45
2022/05/31 11:40:08;;;;;;;7.80;4.30;;;;;;;31.37;44.55;100667.77;1811828;78;20851;-45
2022/05/31 11:42:53;;;;;;;9.23;4.20;;;;;;;31.00;45.06;100667.56;1819156;78;20966;-45
2022/05/31 11:45:48;;;;;;;5.83;4.17;;;;;;;30.77;45.52;100668.08;1778633;78;20919;-46
2022/05/31 11:48:56;;;;;;;6.15;3.65;;;;;;;30.67;44.67;100664.98;1817538;78;21437;-44
2022/05/31 11:52:03;;;;;;;9.80;4.50;;;;;;;30.71;46.32;100667.37;1818012;78;21083;-46
2022/05/31 11:54:41;;;;;;;7.45;4.33;;;;;;;30.88;46.04;100665.13;1818841;78;20927;-45
2022/05/31 11:57:34;;;;;;;9.80;3.85;;;;;;;30.85;44.72;100665.45;1778265;79;21047;-44
2022/05/31 12:00:08;;;;;;;5.42;4.60;;;;;;;30.94;44.55;100662.34;1802284;78;21042;-46
2022/05/31 12:02:56;;;;;;;11.73;4.47;;;;;;;30.95;45.75;100659.52;1816515;77;21082;-45
2022/05/31 12:05:29;;;;;;;;;;;;;;;31.20;44.99;100660.18;1821656;78;21768;-45
2022/05/31 12:08:08;;;;;;;12.63;4.03;;;;;;;31.49;43.39;100659.82;1810056;78;20451;-45
2022/05/31 12:10:44;;;;;;;7.83;3.70;;;;;;;31.47;43.45;100657.81;1792497;78;20843;-45
2022/05/31 12:13:11;;;;;;;12.15;4.67;;;;;;;31.38;43.97;100655.59;1815868;78;21835;-45
2022/05/31 12:15:43;;;;;;;7.87;3.90;;;;;;;31.32;43.41;100656.73;1812765;78;21386;-45
2022/05/31 12:18:45;;;;;;;6.20;4.28;;;;;;;31.42;43.86;100649.41;1817647;78;21681;-45
2022/05/31 12:21:23;;;;;;;8.05;3.83;;;;;;;31.61;41.55;100646.14;1801145;78;20891;-45
2022/05/31 12:24:08;;;;;;;9.63;3.58;;;;;;;31.86;41.88;100646.23;1817985;78;20908;-45
2022/05/31 12:26:56;;;;;;;9.53;3.67;;;;;;;31.95;42.84;100644.76;1771768;78;21508;-45
2022/05/31 12:29:34;;;;;;;4.87;3.70;;;;;;;32.02;42.33;100644.09;1813256;78;20983;-46
2022/05/31 12:32:40;;;;;;;5.03;3.58;;;;;;;31.72;42.78;100642.33;1818835;78;21254;-46
2022/05/31 12:35:31;;;;;;;6.08;3.92;;;;;;;31.56;42.80;100645.80;1784880;79;21024;-44
2022/05/31 12:38:09;;;;;;;3.65;3.10;;;;;;;31.16;44.05;100638.23;1771023;80;20948;-44